Web Počasí Slunečno.cz™ (Podmínky, ePrivacy) používá cookies a personalizace pro reklamní účely. Pohybem po stránce vyjadřujete souhlas. Odejít

Aktuální počasí v Česku a ve světě - METAR

Seznam meteostanic umístěných nejčasteji na letišti v ČR a ve světě

Vyhledat místa podle abecedy:
A B C D E F G H I J K L M N O P Q R S T U V W X Y Z

Filtrovat:

ID stanice:
a/nebo
Název místa (fulltext):
 
Místo (ID)Naposledy načteno 
Brno - Tuřany (Brno/Tu) 17.10.2021 09:00 UTC Zobrazit data
Místo: Brno - Tuřany
Teplota: 9 °C (pocitová: 6.8 °C)
Vítr: 1 m/s z(e) 30°
Počasí: skoro zataženo
Dohlednost: 20 km
Zákl. oblačnosti: 5/8 7500 m
Vlhkost: 76%
Červená - Opava (Cervena/uL) 17.10.2021 09:00 UTC Zobrazit data
Místo: Červená - Opava
Teplota: 6 °C (pocitová: 0.7 °C)
Vítr: 3 m/s z(e) 240°
Počasí: skoro zataženo
Dohlednost: 60 km
Zákl. oblačnosti: 6/8 750 m
Vlhkost: 66%
České Budějovice (C.Budej/po) 17.10.2021 09:00 UTC Zobrazit data
Místo: České Budějovice
Teplota: 5 °C (pocitová: 1.8 °C)
Vítr: 1 m/s z(e) 320°
Počasí: skoro zataženo
Dohlednost: 15 km
Zákl. oblačnosti: 7/8 60 m
Vlhkost: 93%
Cheb (Cheb) 17.10.2021 09:00 UTC Zobrazit data
Místo: Cheb
Teplota: 4 °C (pocitová: 0.6 °C)
Vítr: 1 m/s z(e) 0°
Počasí: zataženo
Dohlednost: 6 km
Zákl. oblačnosti: 8/8 1200 m
Vlhkost: 93%
Chotusice - Čáslav (Caslav) 17.10.2021 09:00 UTC Zobrazit data
Místo: Chotusice - Čáslav
Teplota: 7 °C (pocitová: 4.3 °C)
Vítr: 1 m/s z(e) 140°
Počasí: skoro zataženo
Dohlednost: 15 km
Zákl. oblačnosti: 7/8 1350 m
Vlhkost: 76%
Churáňov (Churanov) 17.10.2021 09:00 UTC Zobrazit data
Místo: Churáňov
Teplota: 5 °C (pocitová: 1.8 °C)
Vítr: 1 m/s z(e) 0°
Počasí: skoro zataženo
Dohlednost: 40 km
Zákl. oblačnosti: 6/8 450 m
Vlhkost: 81%
Doksany - Litoměřice (Doksany) 17.10.2021 09:00 UTC Zobrazit data
Místo: Doksany - Litoměřice
Teplota: 6 °C (pocitová: 3.1 °C)
Vítr: 1 m/s z(e) 0°
Počasí: zataženo
Dohlednost: 9 km
Zákl. oblačnosti: 8/8 1470 m
Vlhkost: 81%
Dukovany (Dukovany) 17.10.2021 09:00 UTC Zobrazit data
Místo: Dukovany
Teplota: 6 °C (pocitová: 3.1 °C)
Vítr: 1 m/s z(e) 330°
Počasí: oblačno
Dohlednost: 15 km
Zákl. oblačnosti: 3/8 9000 m
Vlhkost: 87%
Holešov (Holesov) 17.10.2021 09:00 UTC Zobrazit data
Místo: Holešov
Teplota: 7 °C (pocitová: 4.3 °C)
Vítr: 1 m/s z(e) 260°
Počasí: oblačno
Dohlednost: 15 km
Zákl. oblačnosti: 1/8 1260 m;3/8 6900 m
Vlhkost: 76%
Kadaň - Tušimice (Tusimice) 17.10.2021 09:00 UTC Zobrazit data
Místo: Kadaň - Tušimice
Teplota: 8 °C (pocitová: 5.5 °C)
Vítr: 1 m/s z(e) 0°
Počasí: zataženo
Dohlednost: 25 km
Zákl. oblačnosti: 8/8 1290 m
Vlhkost: 76%
Karlovy Vary (K.Vary) 17.10.2021 09:00 UTC Zobrazit data
Místo: Karlovy Vary
Teplota: 5 °C (pocitová: 1.8 °C)
Vítr: 1 m/s z(e) 190°
Počasí: zataženo
Dohlednost: 30 km
Zákl. oblačnosti: 8/8 1080 m
Vlhkost: 87%
Kocelovice (Kocelovice) 17.10.2021 09:00 UTC Zobrazit data
Místo: Kocelovice
Teplota: 6 °C (pocitová: 3.1 °C)
Vítr: 1 m/s z(e) 0°
Počasí: skoro zataženo
Dohlednost: 22 km
Zákl. oblačnosti: 7/8 1080 m
Vlhkost: 87%
Kopisty (Kopisty) 17.10.2021 09:00 UTC Zobrazit data
Místo: Kopisty
Teplota: 6 °C (pocitová: 16.9 °C)
Vítr: 0 m/s z(e) 0°
Počasí: zataženo
Dohlednost: 13 km
Zákl. oblačnosti: 8/8 1290 m
Vlhkost: 100%
Kostelní Myslová (K.Myslova) 17.10.2021 09:00 UTC Zobrazit data
Místo: Kostelní Myslová
Teplota: 8 °C (pocitová: 4.4 °C)
Vítr: 2 m/s z(e) 0°
Počasí: oblačno
Dohlednost: 35 km
Zákl. oblačnosti: 2/8 690 m
Vlhkost: 66%
Křešín - Kramolín (Kramolin) 17.10.2021 09:00 UTC Zobrazit data
Místo: Křešín - Kramolín
Teplota: 7 °C (pocitová: 4.3 °C)
Vítr: 1 m/s z(e) 50°
Počasí: skoro zataženo
Dohlednost: 30 km
Zákl. oblačnosti: 7/8 990 m
Vlhkost: 81%
Kuchařovice - Znojmo (Kucharovic) 17.10.2021 09:00 UTC Zobrazit data
Místo: Kuchařovice - Znojmo
Teplota: 8 °C (pocitová: 5.5 °C)
Vítr: 1 m/s z(e) 0°
Počasí: skorojasno
Dohlednost: 16 km
Zákl. oblačnosti: 1/8 1260 m
Vlhkost: 76%
Liberec (Liberec) 17.10.2021 09:00 UTC Zobrazit data
Místo: Liberec
Teplota: 7 °C (pocitová: 3.1 °C)
Vítr: 2 m/s z(e) 100°
Počasí: zataženo
Dohlednost: 25 km
Zákl. oblačnosti: 1/8 390 m;8/8 1290 m
Vlhkost: 81%
Luká (Luka) 17.10.2021 09:00 UTC Zobrazit data
Místo: Luká
Teplota: 9 °C (pocitová: 5.6 °C)
Vítr: 2 m/s z(e) 0°
Počasí: oblačno
Dohlednost: 30 km
Zákl. oblačnosti: 1/8 630 m;3/8 9000 m
Vlhkost: 71%
Lysá Hora (Lysa Hora) 17.10.2021 09:00 UTC Zobrazit data
Místo: Lysá Hora
Teplota: 3 °C (pocitová: -0.6 °C)
Vítr: 1 m/s z(e) 0°
Počasí: skorojasno
Dohlednost: 75 km
Zákl. oblačnosti: 1/8 300 m
Vlhkost: 70%
Milešovka (Milesovka) 17.10.2021 09:00 UTC Zobrazit data
Místo: Milešovka
Teplota: 5 °C (pocitová: -0.7 °C)
Vítr: 3 m/s z(e) 270°
Počasí: zataženo
Dohlednost: 40 km
Zákl. oblačnosti: 7/8 690 m
Vlhkost: 87%
Mošnov (Ostrava/Mo) 17.10.2021 09:00 UTC Zobrazit data
Místo: Mošnov
Teplota: 9 °C (pocitová: 6.8 °C)
Vítr: 1 m/s z(e) 0°
Počasí: oblačno
Dohlednost: 25 km
Zákl. oblačnosti: 2/8 1380 m
Vlhkost: 71%
Náměšť nad Oslavou (Namest n/O) 17.10.2021 09:00 UTC Zobrazit data
Místo: Náměšť nad Oslavou
Teplota: 8 °C (pocitová: 5.5 °C)
Vítr: 1 m/s z(e) 90°
Počasí: skorojasno
Dohlednost: 15 km
Zákl. oblačnosti: 1/8 480 m
Vlhkost: 82%
Pardubice (Pardubice) 17.10.2021 09:00 UTC Zobrazit data
Místo: Pardubice
Teplota: 7 °C (pocitová: 4.3 °C)
Vítr: 1 m/s z(e) 10°
Počasí: skoro zataženo
Dohlednost: 20 km
Zákl. oblačnosti: 6/8 1500 m
Vlhkost: 81%
Pec pod Sněžkou (Pec p.Snez) 17.10.2021 09:00 UTC Zobrazit data
Místo: Pec pod Sněžkou
Teplota: 5 °C (pocitová: -1.5 °C)
Vítr: 4 m/s z(e) 200°
Počasí: skoro zataženo
Dohlednost: 20 km
Zákl. oblačnosti: 2/8 420 m;7/8 630 m
Vlhkost: 76%
Plzeň město - Mikulka (Plzen/Miku) 17.10.2021 09:00 UTC Zobrazit data
Místo: Plzeň město - Mikulka
Teplota: 3 °C (pocitová: -0.6 °C)
Vítr: 1 m/s z(e) 0°
Počasí: zataženo
Dohlednost: 8 km
Zákl. oblačnosti: 1/8 120 m;7/8 1290 m
Vlhkost: 93%
Polom (Polom) 17.10.2021 09:00 UTC Zobrazit data
Místo: Polom
Teplota: 6 °C (pocitová: 1.8 °C)
Vítr: 2 m/s z(e) 210°
Počasí: skoro zataženo
Dohlednost: 20 km
Zákl. oblačnosti: 7/8 840 m
Vlhkost: 76%
Praha - Karlov (Praha/Kar) 17.10.2021 09:00 UTC Zobrazit data
Místo: Praha - Karlov
Teplota: 4 °C (pocitová: -0.8 °C)
Vítr: 2 m/s z(e) 200°
Počasí: skoro zataženo
Dohlednost: 13 km
Zákl. oblačnosti: 1/8 150 m;7/8 1290 m
Vlhkost: 87%
Praha - Kbely (Praha/Kbe) 17.10.2021 09:00 UTC Zobrazit data
Místo: Praha - Kbely
Teplota: 5 °C (pocitová: -0.7 °C)
Vítr: 3 m/s z(e) 200°
Počasí: skoro zataženo
Dohlednost: 20 km
Zákl. oblačnosti: 7/8 1290 m
Vlhkost: 93%
Praha - Libuš (Praha/Lib) 17.10.2021 09:00 UTC Zobrazit data
Místo: Praha - Libuš
Teplota: 5 °C (pocitová: 1.8 °C)
Vítr: 1 m/s z(e) 270°
Počasí: skoro zataženo
Dohlednost: 12 km
Zákl. oblačnosti: 7/8 1290 m
Vlhkost: 87%
Praha - Ruzyně (Praha/Ru) 17.10.2021 09:00 UTC Zobrazit data
Místo: Praha - Ruzyně
Teplota: 6 °C (pocitová: 1.8 °C)
Vítr: 2 m/s z(e) 240°
Počasí: skoro zataženo
Dohlednost: 15 km
Zákl. oblačnosti: 7/8 1200 m
Vlhkost: 87%
Přibyslav (Pribyslav) 17.10.2021 09:00 UTC Zobrazit data
Místo: Přibyslav
Teplota: 7 °C (pocitová: 4.3 °C)
Vítr: 1 m/s z(e) 0°
Počasí: skoro zataženo
Dohlednost: 20 km
Zákl. oblačnosti: 5/8 1050 m
Vlhkost: 76%
Přimda (Primda) 17.10.2021 09:00 UTC Zobrazit data
Místo: Přimda
Teplota: 6 °C (pocitová: 3.1 °C)
Vítr: 1 m/s z(e) 250°
Počasí: zataženo
Dohlednost: 30 km
Zákl. oblačnosti: 8/8 900 m
Vlhkost: 87%
Šerák (Serak) 17.10.2021 09:00 UTC Zobrazit data
Místo: Šerák
Teplota: 0 °C (pocitová: -5.9 °C)
Vítr: 2 m/s z(e) 0°
Počasí: zataženo
Dohlednost: 30 km
Zákl. oblačnosti: 8/8 90 m
Vlhkost: 100%
Svratouch (Svratouch) 17.10.2021 09:00 UTC Zobrazit data
Místo: Svratouch
Teplota: 7 °C (pocitová: 3.1 °C)
Vítr: 2 m/s z(e) 230°
Počasí: skoro zataženo
Dohlednost: 30 km
Zákl. oblačnosti: 1/8 540 m;7/8 840 m
Vlhkost: 71%
Temelín (Temelin) 17.10.2021 04:00 UTC Zobrazit data
Místo: Temelín
Teplota: 3 °C (pocitová: -0.6 °C)
Vítr: 1 m/s z(e) 240°
Počasí: zataženo
Dohlednost: 2800 m
Zákl. oblačnosti: N/A
Vlhkost: 100%
Ústí nad Labem - Kočkov (Usti n/L) 17.10.2021 09:00 UTC Zobrazit data
Místo: Ústí nad Labem - Kočkov
Teplota: 6 °C (pocitová: 3.1 °C)
Vítr: 1 m/s z(e) 240°
Počasí: zataženo
Dohlednost: 8 km
Zákl. oblačnosti: 2/8 150 m;8/8 1170 m
Vlhkost: 87%
Ústí nad Orlicí (Usti n/O) 17.10.2021 09:00 UTC Zobrazit data
Místo: Ústí nad Orlicí
Teplota: 5 °C (pocitová: 0.5 °C)
Vítr: 2 m/s z(e) 20°
Počasí: skoro zataženo
Dohlednost: 11 km
Zákl. oblačnosti: 1/8 390 m;7/8 9000 m
Vlhkost: 93%
Aalborg (EKYT) 17.10.2021 08:50 UTC Zobrazit METAR
EKYT 170850Z AUTO 26007KT 9999 BKN180/// 09/08 Q1014
Aarhus (EKAH) 17.10.2021 08:50 UTC Zobrazit METAR
EKAH 170850Z AUTO 27007KT 9999 FEW062/// 10/07 Q1016
Abu Dhabi (OMAA) 17.10.2021 09:00 UTC Zobrazit METAR
OMAA 170900Z 08005KT 020V130 CAVOK 38/06 Q1006 BECMG 33012KT
Abuja (DNAA) 17.10.2021 09:00 UTC Zobrazit METAR
DNAA 170900Z 07008KT 9999 FEW011 28/23 Q1014 NOSIG
Accra (DGAA) 17.10.2021 09:00 UTC Zobrazit METAR
DGAA 170900Z 25009KT 9999 SCT016 29/24 Q1012 NOSIG
Addis Abeba (HAAB) 25.09.2021 12:00 UTC Zobrazit METAR
HAAB 251200Z 08010KT 9000 BKN025 SCT057 19/10 Q1024
Agana (PGUM) 17.10.2021 08:54 UTC Zobrazit METAR
PGUM 170854Z 11003KT 10SM CLR 28/25 A2986 RMK AO2 SLP104 60000 T02780250 51011
Ahe Island (NTHE) Zatím nenačteno  
Akureyri (BIAR) 17.10.2021 09:00 UTC Zobrazit METAR
BIAR 170900Z 00000KT 9000 -SN BKN035 OVC050 M01/M02 Q1018
Almaty (UAAA) Zatím nenačteno  
Amman (OJAM) 17.10.2021 09:00 UTC Zobrazit METAR
OJAM 170900Z 27014KT 7000 NSC 23/09 Q1020 NOSIG
Amsterdam (EHAM) 17.10.2021 08:55 UTC Zobrazit METAR
EHAM 170855Z 19009KT 160V220 9999 FEW032 12/07 Q1019 NOSIG
Antananarivo (FMMI) 17.10.2021 09:00 UTC Zobrazit METAR
FMMI 170900Z 12011KT 080V170 9999 BKN023 25/11 Q1021 NOSIG
1 2 3 ... 9 Další
Reklama

Reklama


Newslettter

Počasí na Váš email

Každý den Vám pošleme předpověď
Emaily chodí ráno a bez reklamy



Odhlásit newsletter


Další české internetové stránky o počasí najdete v katalogu TOPlist - weby o počasí nebo vyhledejte na internetu, co jste tu na Počasí Slunečno Slunečnu zatím nenašli:
Reklama